Time;durP1;ratioP1;P1;durP2;ratioP2;P2;SDS_P1;SDS_P2;PMS_P1;PMS_P2;Temp;Humidity;BMP_temperature;BMP_pressure;BME280_temperature;BME280_humidity;BME280_pressure;Samples;Min_cycle;Max_cycle;Signal;HPM_P1;HPM_P2
2021/01/29 00:00:14;;;;;;;3.70;3.00;;;0.80;99.90;;;;;;4958369;28;20639;-45
2021/01/29 00:02:46;;;;;;;4.80;3.03;;;0.60;99.90;;;;;;4968081;28;21014;-45
2021/01/29 00:05:14;;;;;;;5.03;3.20;;;0.70;99.90;;;;;;4971641;28;20493;-46
2021/01/29 00:07:41;;;;;;;4.53;3.10;;;0.70;99.90;;;;;;4972458;28;20502;-47
2021/01/29 00:10:11;;;;;;;3.33;2.97;;;0.70;99.90;;;;;;4971489;28;20497;-45
2021/01/29 00:12:38;;;;;;;4.80;2.93;;;0.70;99.90;;;;;;4970037;28;21135;-45
2021/01/29 00:15:11;;;;;;;5.03;3.33;;;0.70;99.90;;;;;;4972660;28;20505;-45
2021/01/29 00:17:39;;;;;;;4.63;3.07;;;0.70;99.90;;;;;;4973002;28;20579;-45
2021/01/29 00:20:11;;;;;;;7.27;2.87;;;0.70;99.90;;;;;;4973276;28;20506;-45
2021/01/29 00:22:38;;;;;;;5.90;3.47;;;0.70;99.90;;;;;;4970936;28;20853;-45
2021/01/29 00:25:11;;;;;;;4.70;3.13;;;0.60;99.90;;;;;;4970497;28;20556;-45
2021/01/29 00:27:39;;;;;;;5.77;3.03;;;0.70;99.90;;;;;;4970826;28;20576;-44
2021/01/29 00:30:10;;;;;;;4.97;3.37;;;0.70;99.90;;;;;;4970856;28;20572;-45
2021/01/29 00:32:37;;;;;;;7.47;3.63;;;0.70;99.90;;;;;;4970134;28;20544;-46
2021/01/29 00:35:06;;;;;;;6.20;3.27;;;0.70;99.90;;;;;;4970676;28;21006;-45
2021/01/29 00:37:34;;;;;;;4.57;3.40;;;0.80;99.90;;;;;;4971957;28;20494;-45
2021/01/29 00:40:03;;;;;;;7.60;4.00;;;0.70;99.90;;;;;;4973017;28;20798;-44
2021/01/29 00:42:30;;;;;;;5.60;3.37;;;0.70;99.90;;;;;;4972259;28;21004;-45
2021/01/29 00:44:58;;;;;;;6.57;3.47;;;0.60;99.90;;;;;;4972303;28;20873;-45
2021/01/29 00:47:26;;;;;;;5.77;3.40;;;0.60;99.90;;;;;;4986290;28;20493;-45
2021/01/29 00:49:53;;;;;;;5.37;3.80;;;0.70;99.90;;;;;;4972615;28;20544;-45
2021/01/29 00:52:21;;;;;;;5.67;4.20;;;0.80;99.90;;;;;;4972922;28;20876;-45
2021/01/29 00:54:49;;;;;;;4.67;3.57;;;0.80;99.90;;;;;;4972537;28;20572;-45
2021/01/29 00:57:18;;;;;;;6.13;4.17;;;0.70;99.90;;;;;;4971373;28;20541;-45
2021/01/29 01:00:08;;;;;;;7.17;4.40;;;0.70;99.90;;;;;;4986922;28;20813;-45
2021/01/29 01:02:44;;;;;;;5.70;3.70;;;0.70;99.90;;;;;;4986446;28;20871;-45
2021/01/29 01:05:16;;;;;;;5.87;3.80;;;0.60;99.90;;;;;;4970801;28;20465;-45
2021/01/29 01:07:44;;;;;;;5.23;3.17;;;0.70;99.90;;;;;;4970622;28;20474;-46
2021/01/29 01:10:32;;;;;;;4.37;3.30;;;0.70;99.90;;;;;;4956026;28;20505;-45
2021/01/29 01:13:19;;;;;;;5.20;3.77;;;0.60;99.90;;;;;;4966841;28;20480;-45
2021/01/29 01:16:19;;;;;;;6.97;3.77;;;0.60;99.90;;;;;;4972292;28;20485;-45
2021/01/29 01:18:48;;;;;;;4.70;3.50;;;0.50;99.90;;;;;;4970581;28;20567;-45
2021/01/29 01:21:34;;;;;;;6.00;3.80;;;0.50;99.90;;;;;;4970442;28;20486;-45
2021/01/29 01:24:21;;;;;;;5.50;2.90;;;0.50;99.90;;;;;;4986503;28;20541;-44
2021/01/29 01:26:48;;;;;;;5.77;3.73;;;0.60;99.90;;;;;;4971778;28;20853;-47
2021/01/29 01:29:38;;;;;;;6.87;3.30;;;0.60;99.90;;;;;;4972791;28;20475;-45
2021/01/29 01:32:05;;;;;;;4.17;3.20;;;0.60;99.90;;;;;;4971841;28;20494;-45
2021/01/29 01:34:57;;;;;;;4.77;3.17;;;0.60;99.90;;;;;;4969653;28;20485;-45
2021/01/29 01:37:29;;;;;;;5.30;3.27;;;0.60;99.90;;;;;;4970344;28;20517;-45
2021/01/29 01:40:20;;;;;;;6.77;3.20;;;0.50;99.90;;;;;;4970176;28;20504;-47
2021/01/29 01:42:47;;;;;;;3.77;3.13;;;0.50;99.90;;;;;;4971343;28;20865;-45
2021/01/29 01:45:57;;;;;;;5.30;3.30;;;0.60;99.90;;;;;;4986232;28;20489;-45
2021/01/29 01:48:36;;;;;;;4.23;2.97;;;0.60;99.90;;;;;;4942559;28;20482;-46
2021/01/29 01:51:32;;;;;;;6.00;3.10;;;0.60;99.90;;;;;;4986643;28;20568;-45
2021/01/29 01:54:03;;;;;;;5.90;3.10;;;0.60;99.90;;;;;;4970817;28;20981;-45
2021/01/29 01:56:42;;;;;;;8.97;2.70;;;0.60;99.90;;;;;;4986037;28;20493;-45
2021/01/29 01:59:34;;;;;;;4.43;2.93;;;0.60;99.90;;;;;;4971029;28;20825;-45
2021/01/29 02:02:29;;;;;;;5.67;3.07;;;0.60;99.90;;;;;;4965187;28;20757;-45
2021/01/29 02:05:25;;;;;;;5.20;3.20;;;0.50;99.90;;;;;;4949576;28;20549;-45
2021/01/29 02:07:59;;;;;;;4.67;3.17;;;0.50;99.90;;;;;;4968149;28;20957;-45
2021/01/29 02:10:45;;;;;;;3.50;2.43;;;0.50;99.90;;;;;;4970994;28;20501;-44
2021/01/29 02:13:19;;;;;;;4.70;2.80;;;0.50;99.90;;;;;;4969001;28;21185;-45
2021/01/29 02:16:04;;;;;;;3.30;2.30;;;0.50;99.90;;;;;;4985728;28;20482;-44
2021/01/29 02:18:37;;;;;;;5.10;2.83;;;0.50;99.90;;;;;;4970986;28;20544;-44
2021/01/29 02:22:03;;;;;;;6.80;2.77;;;0.50;99.90;;;;;;4971314;28;20466;-44
2021/01/29 02:26:03;;;;;;;3.53;2.27;;;0.50;99.90;;;;;;4970057;28;20485;-45
2021/01/29 02:29:27;;;;;;;4.17;2.40;;;0.50;99.90;;;;;;4950454;28;20486;-45
2021/01/29 02:32:40;;;;;;;3.03;2.17;;;0.50;99.90;;;;;;4968584;28;20478;-48
2021/01/29 02:36:03;;;;;;;3.60;2.10;;;0.50;99.90;;;;;;4985154;28;20482;-45
2021/01/29 02:38:48;;;;;;;3.43;2.00;;;0.50;99.90;;;;;;4946211;28;20533;-45
2021/01/29 02:41:30;;;;;;;3.23;2.10;;;0.60;99.90;;;;;;4966101;28;20482;-45
2021/01/29 02:44:31;;;;;;;4.13;2.27;;;0.60;99.90;;;;;;4965112;28;20539;-46
2021/01/29 02:47:23;;;;;;;3.83;2.20;;;0.50;99.90;;;;;;4963730;28;20552;-45
2021/01/29 02:50:36;;;;;;;3.87;1.80;;;0.50;99.90;;;;;;4970692;28;20549;-45
2021/01/29 02:53:40;;;;;;;3.13;1.70;;;0.50;99.90;;;;;;4969441;28;20488;-45
2021/01/29 02:56:44;;;;;;;1.80;1.40;;;0.50;99.90;;;;;;4970140;28;20490;-45
2021/01/29 02:59:35;;;;;;;4.07;1.93;;;0.60;99.90;;;;;;4967691;28;20861;-44
2021/01/29 03:02:28;;;;;;;3.50;1.77;;;0.60;99.90;;;;;;4968143;28;21089;-45
2021/01/29 03:05:13;;;;;;;4.27;1.63;;;0.50;99.90;;;;;;4982305;28;20500;-46
2021/01/29 03:07:51;;;;;;;3.80;1.53;;;0.50;99.90;;;;;;4969881;28;20486;-45
2021/01/29 03:10:48;;;;;;;4.00;1.70;;;0.70;99.90;;;;;;4970047;28;20605;-44
2021/01/29 03:13:41;;;;;;;3.20;1.40;;;0.60;99.90;;;;;;4969055;28;20537;-45
2021/01/29 03:16:33;;;;;;;3.40;1.70;;;0.60;99.90;;;;;;4969834;28;20507;-45
2021/01/29 03:19:26;;;;;;;6.53;2.37;;;0.70;99.90;;;;;;4970561;28;20989;-45
2021/01/29 03:22:18;;;;;;;2.90;1.77;;;0.60;99.90;;;;;;4969854;28;20476;-45
2021/01/29 03:25:13;;;;;;;5.17;1.87;;;0.60;99.90;;;;;;4969682;28;20546;-44
2021/01/29 03:28:06;;;;;;;3.03;1.60;;;0.60;99.90;;;;;;4969840;28;20928;-46
2021/01/29 03:30:56;;;;;;;3.77;1.73;;;0.60;99.90;;;;;;4964869;28;21254;-45
2021/01/29 03:33:47;;;;;;;3.47;1.73;;;0.60;99.90;;;;;;4969103;28;20481;-45
2021/01/29 03:36:41;;;;;;;5.30;1.67;;;0.60;99.90;;;;;;4970371;28;20850;-45
2021/01/29 03:39:34;;;;;;;3.07;1.93;;;0.60;99.90;;;;;;4973820;28;20492;-44
2021/01/29 03:42:35;;;;;;;3.00;1.23;;;0.50;99.90;;;;;;4973253;28;20493;-45
2021/01/29 03:45:35;;;;;;;2.37;1.63;;;0.60;99.90;;;;;;4973819;28;20925;-45
2021/01/29 03:48:28;;;;;;;3.13;1.60;;;0.50;99.90;;;;;;4973203;28;20488;-45
2021/01/29 03:51:24;;;;;;;3.90;1.50;;;0.50;99.90;;;;;;4973742;28;20469;-45
2021/01/29 03:54:21;;;;;;;1.60;1.50;;;0.50;99.90;;;;;;4972834;28;20519;-45
2021/01/29 03:57:21;;;;;;;1.97;1.40;;;0.50;99.90;;;;;;4973608;28;20617;-46
2021/01/29 04:00:19;;;;;;;4.67;1.80;;;0.50;99.90;;;;;;4972280;28;21011;-45
2021/01/29 04:03:19;;;;;;;3.73;1.70;;;0.50;99.90;;;;;;4969216;28;20604;-45
2021/01/29 04:06:11;;;;;;;3.50;1.97;;;0.40;99.90;;;;;;4969209;28;20493;-45
2021/01/29 04:09:11;;;;;;;5.10;2.20;;;0.50;99.90;;;;;;4944536;28;20873;-45
2021/01/29 04:12:06;;;;;;;4.70;2.10;;;0.50;99.90;;;;;;4922971;28;20557;-44
2021/01/29 04:14:55;;;;;;;4.23;2.27;;;0.50;99.90;;;;;;4967912;28;20498;-45
2021/01/29 04:17:30;;;;;;;3.20;1.60;;;0.50;99.90;;;;;;4962171;28;20486;-45
2021/01/29 04:20:07;;;;;;;2.67;2.10;;;0.50;99.90;;;;;;4973426;28;21032;-45
2021/01/29 04:22:37;;;;;;;3.40;1.93;;;0.50;99.90;;;;;;4971362;28;20509;-45
2021/01/29 04:25:16;;;;;;;4.07;2.10;;;0.50;99.90;;;;;;4971559;28;20819;-44
2021/01/29 04:27:48;;;;;;;3.47;2.27;;;0.50;99.90;;;;;;4966229;28;20494;-44
2021/01/29 04:30:21;;;;;;;3.97;2.60;;;0.50;99.90;;;;;;4973496;28;20976;-45
2021/01/29 04:32:57;;;;;;;3.93;2.40;;;0.50;99.90;;;;;;4972687;28;20485;-46
2021/01/29 04:35:27;;;;;;;3.87;2.70;;;0.50;99.90;;;;;;4971509;28;20481;-45
2021/01/29 04:38:08;;;;;;;6.37;3.20;;;0.40;99.90;;;;;;4971445;28;20897;-45
2021/01/29 04:40:47;;;;;;;5.17;2.80;;;0.40;99.90;;;;;;4971876;28;20532;-45
2021/01/29 04:43:48;;;;;;;6.13;2.90;;;0.50;99.90;;;;;;4970527;28;20485;-44
2021/01/29 04:46:31;;;;;;;4.67;2.47;;;0.40;99.90;;;;;;4971415;28;20465;-45
2021/01/29 04:49:14;;;;;;;4.43;2.77;;;0.40;99.90;;;;;;4971165;28;20528;-45
2021/01/29 04:52:41;;;;;;;6.53;3.47;;;0.40;99.90;;;;;;4971296;28;20520;-45
2021/01/29 04:55:49;;;;;;;4.33;3.00;;;0.40;99.90;;;;;;4959672;28;20528;-44
2021/01/29 04:58:18;;;;;;;7.70;3.37;;;0.40;99.90;;;;;;4943068;28;20525;-45
2021/01/29 05:01:37;;;;;;;5.70;3.37;;;0.40;99.90;;;;;;4968858;28;20482;-45
2021/01/29 05:05:03;;;;;;;4.93;3.17;;;0.40;99.90;;;;;;4969923;28;20536;-44
2021/01/29 05:08:14;;;;;;;5.07;3.00;;;0.40;99.90;;;;;;4971091;28;20564;-46
2021/01/29 05:11:46;;;;;;;7.63;3.10;;;0.40;99.90;;;;;;4969526;28;20475;-45
2021/01/29 05:14:33;;;;;;;4.63;2.90;;;0.40;99.90;;;;;;4969622;28;20881;-45
2021/01/29 05:17:41;;;;;;;3.97;2.40;;;0.40;99.90;;;;;;4970854;28;20544;-45
2021/01/29 05:20:40;;;;;;;4.17;2.47;;;0.40;99.90;;;;;;4970700;28;20699;-50
2021/01/29 05:23:17;;;;;;;3.10;2.27;;;0.40;99.90;;;;;;4969564;28;20478;-47
2021/01/29 05:26:50;;;;;;;4.03;2.60;;;0.30;99.90;;;;;;4970138;28;21067;-46
2021/01/29 05:29:36;;;;;;;4.53;2.60;;;0.30;99.90;;;;;;4970442;28;20572;-45
2021/01/29 05:32:18;;;;;;;4.67;2.60;;;0.40;99.90;;;;;;4970365;28;20482;-45
2021/01/29 05:35:01;;;;;;;5.13;2.60;;;0.30;99.90;;;;;;4969545;28;20492;-46
2021/01/29 05:38:29;;;;;;;4.53;2.43;;;0.40;99.90;;;;;;4970048;28;20516;-46
2021/01/29 05:41:39;;;;;;;5.90;2.40;;;0.40;99.90;;;;;;4970278;28;21068;-45
2021/01/29 05:44:53;;;;;;;4.90;2.57;;;0.30;99.90;;;;;;4968821;28;20509;-45
2021/01/29 05:48:22;;;;;;;4.70;2.63;;;0.30;99.90;;;;;;4969926;28;20481;-45
2021/01/29 05:51:44;;;;;;;3.10;2.20;;;0.30;99.90;;;;;;4970324;28;20493;-45
2021/01/29 05:54:30;;;;;;;11.70;6.00;;;0.30;99.90;;;;;;4907693;29;21268;-44
2021/01/29 05:58:03;;;;;;;4.33;2.70;;;0.30;99.90;;;;;;4966340;28;20474;-45
2021/01/29 06:00:55;;;;;;;4.30;2.13;;;0.30;99.90;;;;;;4967513;28;21106;-44
2021/01/29 06:03:40;;;;;;;3.90;2.20;;;0.30;99.90;;;;;;4968387;28;20520;-45
2021/01/29 06:06:43;;;;;;;3.87;2.37;;;0.30;99.90;;;;;;4970000;28;20917;-45
2021/01/29 06:09:49;;;;;;;5.10;2.30;;;0.30;99.90;;;;;;4969482;28;20867;-45
2021/01/29 06:12:39;;;;;;;5.63;2.60;;;0.30;99.90;;;;;;4968281;28;20478;-45
2021/01/29 06:15:49;;;;;;;3.90;2.00;;;0.30;99.90;;;;;;4967382;28;20759;-45
2021/01/29 06:19:21;;;;;;;4.10;2.13;;;0.20;99.90;;;;;;4949273;28;20566;-45
2021/01/29 06:22:28;;;;;;;4.50;2.07;;;0.30;99.90;;;;;;4964948;28;20489;-46
2021/01/29 06:25:45;;;;;;;3.00;2.03;;;0.30;99.90;;;;;;4967518;28;20564;-45
2021/01/29 06:28:55;;;;;;;5.23;2.60;;;0.30;99.90;;;;;;4888767;29;20501;-45
2021/01/29 06:32:13;;;;;;;2.83;2.00;;;0.30;99.90;;;;;;4888204;29;20989;-45
2021/01/29 06:35:05;;;;;;;6.00;2.53;;;0.30;99.90;;;;;;4927138;28;20487;-45
2021/01/29 06:37:48;;;;;;;2.50;1.83;;;0.30;99.90;;;;;;4948891;28;20494;-45
2021/01/29 06:40:31;;;;;;;3.30;1.70;;;0.30;99.90;;;;;;4948938;28;20482;-44
2021/01/29 06:43:32;;;;;;;3.07;1.53;;;0.30;99.90;;;;;;4956918;28;20855;-46
2021/01/29 06:46:29;;;;;;;4.40;1.67;;;0.30;99.90;;;;;;4967498;28;20486;-45
2021/01/29 06:49:29;;;;;;;2.40;1.77;;;0.30;99.90;;;;;;4967080;28;20976;-44
2021/01/29 06:52:45;;;;;;;2.93;1.60;;;0.30;99.90;;;;;;4947153;28;20486;-45
2021/01/29 06:55:42;;;;;;;1.80;1.30;;;0.20;99.90;;;;;;4961868;28;20476;-45
2021/01/29 06:59:08;;;;;;;2.37;1.30;;;0.20;99.90;;;;;;4952726;28;20510;-45
2021/01/29 07:02:14;;;;;;;4.23;1.50;;;0.20;99.90;;;;;;4963859;28;20474;-45
2021/01/29 07:05:16;;;;;;;2.53;1.63;;;0.30;99.90;;;;;;4957077;28;20477;-45
2021/01/29 07:08:00;;;;;;;5.50;1.90;;;0.30;99.90;;;;;;4968953;28;21005;-45
2021/01/29 07:11:18;;;;;;;4.23;1.90;;;0.30;99.90;;;;;;4963681;28;20481;-45
2021/01/29 07:14:01;;;;;;;4.10;1.87;;;0.40;99.90;;;;;;4945332;28;20908;-45
2021/01/29 07:16:53;;;;;;;1.73;1.40;;;0.30;99.90;;;;;;4966414;28;20969;-45
2021/01/29 07:19:43;;;;;;;6.43;2.20;;;0.30;99.90;;;;;;4965292;28;21024;-45
2021/01/29 07:22:45;;;;;;;3.20;1.60;;;0.30;99.90;;;;;;4967264;28;20482;-45
2021/01/29 07:25:22;;;;;;;2.10;1.50;;;0.40;99.90;;;;;;4966810;28;20556;-45
2021/01/29 07:28:04;;;;;;;4.27;2.23;;;0.40;99.90;;;;;;4967034;28;20600;-45
2021/01/29 07:31:06;;;;;;;3.43;1.87;;;0.30;99.90;;;;;;4969452;28;20486;-45
2021/01/29 07:33:40;;;;;;;2.23;1.47;;;0.40;99.90;;;;;;4960215;28;20493;-45
2021/01/29 07:36:55;;;;;;;3.10;1.33;;;0.30;99.90;;;;;;4966632;28;20489;-45
2021/01/29 07:39:51;;;;;;;4.10;1.70;;;0.30;99.90;;;;;;4966813;28;20600;-45
2021/01/29 07:43:08;;;;;;;4.07;1.60;;;0.30;99.90;;;;;;4966443;28;20537;-45
2021/01/29 07:45:56;;;;;;;2.20;1.40;;;0.30;99.90;;;;;;4955605;28;20978;-45
2021/01/29 07:48:50;;;;;;;4.50;1.60;;;0.40;99.90;;;;;;4964811;28;20485;-45
2021/01/29 07:51:35;;;;;;;3.43;1.50;;;0.40;99.90;;;;;;4961082;28;20485;-45
2021/01/29 07:54:30;;;;;;;2.23;1.27;;;0.40;99.90;;;;;;4962274;28;20491;-45
2021/01/29 07:57:13;;;;;;;4.30;1.33;;;0.40;99.90;;;;;;4966192;28;21013;-47
2021/01/29 08:00:03;;;;;;;4.77;2.17;;;0.40;99.90;;;;;;4967501;28;20532;-45
2021/01/29 08:03:16;;;;;;;5.03;1.60;;;0.40;99.90;;;;;;4966238;28;20522;-45
2021/01/29 08:05:54;;;;;;;5.70;2.90;;;0.40;99.90;;;;;;4964423;28;20540;-45
2021/01/29 08:08:28;;;;;;;7.73;2.30;;;0.30;99.90;;;;;;4968053;28;20470;-46
2021/01/29 08:11:03;;;;;;;7.23;2.40;;;0.40;99.90;;;;;;4966766;28;20536;-47
2021/01/29 08:13:59;;;;;;;5.20;1.90;;;0.40;99.90;;;;;;4966298;28;20655;-45
2021/01/29 08:16:51;;;;;;;8.67;2.23;;;0.40;99.90;;;;;;4966746;28;20896;-45
2021/01/29 08:19:23;;;;;;;3.53;2.03;;;0.40;99.90;;;;;;4965572;28;20474;-45
2021/01/29 08:22:35;;;;;;;4.43;1.90;;;0.40;99.90;;;;;;4971110;28;20536;-45
2021/01/29 08:25:21;;;;;;;5.53;1.97;;;0.40;99.90;;;;;;4962967;28;21008;-46
2021/01/29 08:28:25;;;;;;;8.13;2.03;;;0.40;99.90;;;;;;4970574;28;20509;-45
2021/01/29 08:31:40;;;;;;;5.13;2.27;;;0.40;99.90;;;;;;4997751;28;20830;-45
2021/01/29 08:34:42;;;;;;;5.83;1.77;;;0.40;99.90;;;;;;4995999;28;20474;-45
2021/01/29 08:37:42;;;;;;;4.33;1.87;;;0.40;99.90;;;;;;4969032;28;20469;-45
2021/01/29 08:40:29;;;;;;;3.30;1.90;;;0.40;99.90;;;;;;4969737;28;20494;-45
2021/01/29 08:43:26;;;;;;;4.70;2.00;;;0.40;99.90;;;;;;4960685;28;20481;-45
2021/01/29 08:46:18;;;;;;;4.17;1.87;;;0.50;99.90;;;;;;4958098;28;20497;-45
2021/01/29 08:49:11;;;;;;;7.17;2.50;;;0.50;99.90;;;;;;4958289;28;20574;-45
2021/01/29 08:51:48;;;;;;;8.77;2.63;;;0.50;99.90;;;;;;4955545;28;20515;-45
2021/01/29 08:54:36;;;;;;;5.07;2.57;;;0.50;99.90;;;;;;4955359;28;20484;-46
2021/01/29 08:57:26;;;;;;;6.53;2.00;;;0.50;99.90;;;;;;4956907;28;20481;-45
2021/01/29 08:59:58;;;;;;;5.73;2.27;;;0.50;99.90;;;;;;4956872;28;20489;-46
2021/01/29 09:02:54;;;;;;;8.13;2.30;;;0.50;99.90;;;;;;4954628;28;20552;-45
2021/01/29 09:05:27;;;;;;;5.60;1.80;;;0.50;99.90;;;;;;4957027;28;20482;-45
2021/01/29 09:07:58;;;;;;;8.60;1.87;;;0.60;99.90;;;;;;4955700;28;20484;-46
2021/01/29 09:10:47;;;;;;;7.73;2.50;;;0.60;99.90;;;;;;4956087;28;20593;-46
2021/01/29 09:13:19;;;;;;;7.13;2.20;;;0.70;99.90;;;;;;4955219;28;20486;-45
2021/01/29 09:15:55;;;;;;;3.07;1.70;;;0.70;99.90;;;;;;4955425;28;20505;-45
2021/01/29 09:18:35;;;;;;;3.07;1.80;;;0.70;99.90;;;;;;4955106;28;20537;-45
2021/01/29 09:21:13;;;;;;;3.10;1.80;;;0.70;99.90;;;;;;4956116;28;20497;-45
2021/01/29 09:23:57;;;;;;;3.17;1.90;;;0.70;99.90;;;;;;4953381;28;20517;-45
2021/01/29 09:26:32;;;;;;;4.93;1.83;;;0.70;99.90;;;;;;4955356;28;20560;-46
2021/01/29 09:29:07;;;;;;;3.33;1.80;;;0.80;99.90;;;;;;4956578;28;20573;-45
2021/01/29 09:31:37;;;;;;;3.10;1.80;;;0.80;99.90;;;;;;4956421;28;20540;-45
2021/01/29 09:34:10;;;;;;;4.80;1.90;;;0.80;99.90;;;;;;4953555;28;20490;-47
2021/01/29 09:36:48;;;;;;;3.50;1.70;;;0.90;99.90;;;;;;4956143;28;20530;-45
2021/01/29 09:39:41;;;;;;;5.80;1.93;;;0.90;99.90;;;;;;4956377;28;20493;-45
2021/01/29 09:42:13;;;;;;;2.93;1.40;;;0.80;99.90;;;;;;4954994;28;21250;-45
2021/01/29 09:44:48;;;;;;;3.23;1.60;;;0.80;99.90;;;;;;4954973;28;20953;-45
2021/01/29 09:47:19;;;;;;;4.23;1.70;;;0.90;99.90;;;;;;4954375;28;20853;-45
2021/01/29 09:49:47;;;;;;;3.60;1.70;;;0.90;99.90;;;;;;4954794;28;20482;-45
2021/01/29 09:52:24;;;;;;;2.77;1.80;;;0.80;99.90;;;;;;4953265;28;20565;-45
2021/01/29 09:55:05;;;;;;;4.97;1.83;;;0.80;99.90;;;;;;4955224;28;20482;-45
2021/01/29 09:57:37;;;;;;;4.37;1.70;;;0.80;99.90;;;;;;4955490;28;20498;-45
2021/01/29 10:00:14;;;;;;;4.13;2.17;;;0.90;99.90;;;;;;4955599;28;20513;-46
2021/01/29 10:03:02;;;;;;;4.00;1.80;;;0.90;99.90;;;;;;4953616;28;20936;-45
2021/01/29 10:05:36;;;;;;;4.60;2.87;;;0.90;99.90;;;;;;4955189;28;20572;-45
2021/01/29 10:08:13;;;;;;;3.57;1.83;;;0.90;99.90;;;;;;4955846;28;20532;-45
2021/01/29 10:10:57;;;;;;;2.93;1.50;;;1.00;99.90;;;;;;4955603;28;20493;-46
2021/01/29 10:13:44;;;;;;;3.43;2.00;;;1.00;99.90;;;;;;4953501;28;20494;-46
2021/01/29 10:16:36;;;;;;;4.10;1.80;;;0.90;99.90;;;;;;4955347;28;20486;-45
2021/01/29 10:19:28;;;;;;;2.90;1.70;;;0.90;99.90;;;;;;4956036;28;20501;-45
2021/01/29 10:22:54;;;;;;;4.87;2.03;;;0.80;99.90;;;;;;4953544;28;20505;-46
2021/01/29 10:25:33;;;;;;;4.37;2.10;;;0.90;99.90;;;;;;4952407;28;21608;-45
2021/01/29 10:28:46;;;;;;;5.63;2.30;;;0.90;99.90;;;;;;4954882;28;20485;-45
2021/01/29 10:31:15;;;;;;;3.67;1.97;;;0.90;99.90;;;;;;4955124;28;20569;-45
2021/01/29 10:33:49;;;;;;;3.77;2.20;;;0.90;99.90;;;;;;4952746;28;20486;-45
2021/01/29 10:36:23;;;;;;;4.50;1.93;;;0.80;99.90;;;;;;4954978;28;20582;-45
2021/01/29 10:38:58;;;;;;;3.87;1.90;;;0.80;99.90;;;;;;4955154;28;20496;-44
2021/01/29 10:41:35;;;;;;;2.10;1.53;;;0.80;99.90;;;;;;4953741;28;20579;-46
2021/01/29 10:44:10;;;;;;;4.63;1.70;;;0.70;99.90;;;;;;4951323;28;20912;-45
2021/01/29 10:47:06;;;;;;;2.60;1.80;;;0.70;99.90;;;;;;4953661;28;20503;-45
2021/01/29 10:49:46;;;;;;;5.03;1.67;;;0.70;99.90;;;;;;4955442;28;20490;-44
2021/01/29 10:52:29;;;;;;;5.70;2.20;;;0.70;99.90;;;;;;4953660;28;20892;-45
2021/01/29 10:54:57;;;;;;;3.27;1.87;;;0.70;99.90;;;;;;4955091;28;20485;-46
2021/01/29 10:57:36;;;;;;;2.60;1.73;;;0.60;99.90;;;;;;4954573;28;20490;-45
2021/01/29 11:00:14;;;;;;;3.13;1.87;;;0.50;99.90;;;;;;4954706;28;21024;-45
2021/01/29 11:02:48;;;;;;;3.23;1.47;;;0.50;99.90;;;;;;4953378;28;22882;-45
2021/01/29 11:05:24;;;;;;;3.93;2.40;;;0.50;99.90;;;;;;4955061;28;20792;-45
2021/01/29 11:08:03;;;;;;;2.63;1.80;;;0.50;99.90;;;;;;4954578;28;20916;-45
2021/01/29 11:10:31;;;;;;;6.17;1.60;;;0.50;99.90;;;;;;4954639;28;20583;-45
2021/01/29 11:13:05;;;;;;;4.27;2.00;;;0.50;99.90;;;;;;4952014;28;21210;-45
2021/01/29 11:15:38;;;;;;;2.57;1.83;;;0.50;99.90;;;;;;4953553;28;20494;-46
2021/01/29 11:18:17;;;;;;;2.40;1.70;;;0.40;99.90;;;;;;4955287;28;20504;-45
2021/01/29 11:20:46;;;;;;;3.93;2.10;;;0.40;99.90;;;;;;4952500;28;20481;-45
2021/01/29 11:23:29;;;;;;;5.70;1.77;;;0.40;99.90;;;;;;4951472;28;20911;-45
2021/01/29 11:26:13;;;;;;;5.90;2.50;;;0.30;99.90;;;;;;4953563;28;20521;-45
2021/01/29 11:28:56;;;;;;;2.73;2.00;;;0.30;99.90;;;;;;4953837;28;20649;-46
2021/01/29 11:31:45;;;;;;;4.13;2.97;;;0.30;99.90;;;;;;4953670;28;20500;-45
2021/01/29 11:34:23;;;;;;;5.93;2.43;;;0.20;99.90;;;;;;4952729;28;20866;-46
2021/01/29 11:37:06;;;;;;;3.13;2.07;;;0.20;99.90;;;;;;4954038;28;20486;-45
2021/01/29 11:39:40;;;;;;;6.10;1.83;;;0.20;99.90;;;;;;4953190;28;20501;-45
2021/01/29 11:42:24;;;;;;;3.67;2.50;;;0.20;99.90;;;;;;4950120;28;20482;-45
2021/01/29 11:45:03;;;;;;;3.40;2.20;;;0.20;99.90;;;;;;4952585;28;20490;-46
2021/01/29 11:47:39;;;;;;;4.97;2.57;;;0.20;99.90;;;;;;4953646;28;20565;-46
2021/01/29 11:50:15;;;;;;;6.83;2.93;;;0.20;99.90;;;;;;4954545;28;20613;-45
2021/01/29 11:52:53;;;;;;;3.27;2.30;;;0.20;99.90;;;;;;4952523;28;20548;-45
2021/01/29 11:55:27;;;;;;;2.70;2.00;;;0.20;99.90;;;;;;4953118;28;21931;-46
2021/01/29 11:58:08;;;;;;;4.20;2.50;;;0.20;99.90;;;;;;4955382;28;20477;-45
2021/01/29 12:00:42;;;;;;;5.20;2.50;;;0.10;99.90;;;;;;4956884;28;20587;-46
2021/01/29 12:03:20;;;;;;;3.13;1.80;;;0.20;99.90;;;;;;4955604;28;20489;-45
2021/01/29 12:05:58;;;;;;;4.10;2.20;;;0.10;99.90;;;;;;4957299;28;20513;-46
2021/01/29 12:08:44;;;;;;;3.63;1.97;;;0.00;99.90;;;;;;4957914;28;20496;-46
2021/01/29 12:11:23;;;;;;;4.67;2.83;;;0.00;99.90;;;;;;4957063;28;21016;-45
2021/01/29 12:14:05;;;;;;;4.43;2.60;;;-0.10;99.90;;;;;;4955553;28;20600;-45
2021/01/29 12:16:35;;;;;;;8.03;3.30;;;0.00;99.90;;;;;;4956879;28;20605;-45
2021/01/29 12:19:05;;;;;;;5.93;3.03;;;-0.10;99.90;;;;;;4957925;28;20499;-45
2021/01/29 12:21:43;;;;;;;5.13;2.93;;;-0.10;99.90;;;;;;4971848;28;20481;-45
2021/01/29 12:24:28;;;;;;;3.83;2.57;;;-0.10;99.90;;;;;;4955198;28;20531;-47
2021/01/29 12:27:04;;;;;;;3.30;2.17;;;-0.10;99.90;;;;;;4957557;28;20540;-45
2021/01/29 12:29:46;;;;;;;2.73;2.10;;;-0.10;99.90;;;;;;4957235;28;21104;-46
2021/01/29 12:32:48;;;;;;;3.40;1.83;;;-0.10;99.90;;;;;;4956030;28;20980;-45
2021/01/29 12:35:25;;;;;;;2.00;1.80;;;-0.20;99.90;;;;;;4924717;28;20555;-44
2021/01/29 12:38:18;;;;;;;2.60;1.80;;;-0.30;99.90;;;;;;4953007;28;21048;-45
2021/01/29 12:40:54;;;;;;;3.40;2.42;;;-0.30;99.90;;;;;;4947402;28;20471;-44
2021/01/29 12:43:30;;;;;;;3.87;2.20;;;-0.30;99.90;;;;;;4951644;28;20249;-46
2021/01/29 12:46:02;;;;;;;4.20;2.47;;;-0.30;99.90;;;;;;4955968;28;20485;-45
2021/01/29 12:48:46;;;;;;;3.47;2.10;;;-0.30;99.90;;;;;;4956643;28;20659;-45
2021/01/29 12:51:49;;;;;;;4.60;2.50;;;-0.30;99.90;;;;;;4955511;28;21004;-45
2021/01/29 12:54:24;;;;;;;3.17;2.03;;;-0.30;99.90;;;;;;4953749;28;20997;-45
2021/01/29 12:57:02;;;;;;;3.47;1.80;;;-0.30;99.90;;;;;;4956961;28;20894;-45
2021/01/29 12:59:46;;;;;;;3.43;2.20;;;-0.30;99.90;;;;;;4954398;28;20490;-45
2021/01/29 13:02:35;;;;;;;3.17;2.20;;;-0.30;99.90;;;;;;4955211;28;20482;-45
2021/01/29 13:05:16;;;;;;;7.00;2.50;;;-0.30;99.90;;;;;;4955435;28;21005;-45
2021/01/29 13:08:06;;;;;;;4.23;2.13;;;-0.20;99.90;;;;;;4957134;28;20872;-44
2021/01/29 13:10:39;;;;;;;4.57;2.30;;;-0.20;99.90;;;;;;4953928;28;21023;-45
2021/01/29 13:13:23;;;;;;;3.17;2.00;;;-0.30;99.90;;;;;;4954669;28;20897;-45
2021/01/29 13:16:05;;;;;;;3.47;2.07;;;-0.30;99.90;;;;;;4956219;28;20492;-45
2021/01/29 13:19:04;;;;;;;3.27;2.30;;;-0.20;99.90;;;;;;4956290;28;21377;-44
2021/01/29 13:21:51;;;;;;;4.97;2.47;;;-0.30;99.90;;;;;;4917826;28;20494;-45
2021/01/29 13:24:26;;;;;;;4.17;2.23;;;-0.20;99.90;;;;;;4954489;28;20496;-45
2021/01/29 13:26:57;;;;;;;3.53;2.30;;;-0.40;99.90;;;;;;4955360;28;20492;-45
2021/01/29 13:29:28;;;;;;;5.23;2.57;;;-0.30;99.90;;;;;;4955194;28;20992;-46
2021/01/29 13:32:12;;;;;;;5.40;2.23;;;-0.40;99.90;;;;;;4954833;28;20879;-45
2021/01/29 13:34:43;;;;;;;3.07;2.20;;;-0.40;99.90;;;;;;4953582;28;21015;-45
2021/01/29 13:37:22;;;;;;;4.50;1.77;;;-0.40;99.90;;;;;;4953334;28;20488;-45
2021/01/29 13:39:51;;;;;;;4.10;1.90;;;-0.50;99.90;;;;;;4954089;28;20518;-45
2021/01/29 13:42:27;;;;;;;2.57;1.73;;;-0.40;99.90;;;;;;4952679;28;21148;-45
2021/01/29 13:44:59;;;;;;;6.10;2.30;;;-0.40;99.90;;;;;;4953092;28;20521;-46
2021/01/29 13:47:31;;;;;;;3.33;2.40;;;-0.50;99.90;;;;;;4953231;28;20588;-45
2021/01/29 13:50:20;;;;;;;2.53;1.63;;;-0.40;99.90;;;;;;4954367;28;20482;-45
2021/01/29 13:52:51;;;;;;;3.07;1.90;;;-0.40;99.90;;;;;;4946019;28;20493;-45
2021/01/29 13:55:29;;;;;;;3.87;2.60;;;-0.40;99.90;;;;;;4943893;28;20490;-45
2021/01/29 13:58:08;;;;;;;4.23;2.53;;;-0.40;99.90;;;;;;4947156;28;20513;-45
2021/01/29 14:00:44;;;;;;;3.83;2.67;;;-0.40;99.90;;;;;;4944880;28;21076;-45
2021/01/29 14:03:20;;;;;;;6.33;3.17;;;-0.50;99.90;;;;;;4941810;28;20593;-45
2021/01/29 14:05:49;;;;;;;5.73;3.03;;;-0.40;99.90;;;;;;4944002;28;20827;-44
2021/01/29 14:08:18;;;;;;;4.87;2.63;;;-0.30;99.90;;;;;;4944632;28;20478;-45
2021/01/29 14:10:57;;;;;;;4.43;2.60;;;-0.30;99.90;;;;;;4946461;28;20478;-45
2021/01/29 14:13:52;;;;;;;6.90;2.60;;;-0.20;99.90;;;;;;4941350;28;20493;-45
2021/01/29 14:16:34;;;;;;;5.97;3.30;;;-0.30;99.90;;;;;;4944343;28;20889;-46
2021/01/29 14:19:21;;;;;;;3.17;2.70;;;-0.40;99.90;;;;;;4953592;28;21356;-44
2021/01/29 14:21:56;;;;;;;4.13;2.53;;;-0.40;99.90;;;;;;4953004;28;20601;-45
2021/01/29 14:24:38;;;;;;;4.20;2.37;;;-0.40;99.90;;;;;;4956558;28;20513;-45
2021/01/29 14:27:19;;;;;;;4.73;3.33;;;-0.40;99.90;;;;;;4966165;28;20936;-45
2021/01/29 14:29:55;;;;;;;4.67;2.80;;;-0.50;99.90;;;;;;4968756;28;20597;-45
2021/01/29 14:32:50;;;;;;;3.77;2.40;;;-0.50;99.90;;;;;;4967501;28;20572;-45
2021/01/29 14:35:24;;;;;;;5.18;2.85;;;-0.50;99.90;;;;;;4964912;28;20780;-44